sensor_id;sensor_type;location;lat;lon;timestamp;temperature;humidity
28244;DHT22;15510;52.512;13.300;2024-01-27T00:00:47;7.00;99.90
28244;DHT22;15510;52.512;13.300;2024-01-27T00:03:16;7.00;99.90
28244;DHT22;15510;52.512;13.300;2024-01-27T00:05:42;7.00;99.90
28244;DHT22;15510;52.512;13.300;2024-01-27T00:08:11;7.00;99.90
28244;DHT22;15510;52.512;13.300;2024-01-27T00:10:40;6.90;99.90
28244;DHT22;15510;52.512;13.300;2024-01-27T00:13:09;6.90;99.90
28244;DHT22;15510;52.512;13.300;2024-01-27T00:15:34;6.90;99.90
28244;DHT22;15510;52.512;13.300;2024-01-27T00:18:00;6.90;99.90
28244;DHT22;15510;52.512;13.300;2024-01-27T00:20:26;6.80;99.90
28244;DHT22;15510;52.512;13.300;2024-01-27T00:22:52;6.90;99.90
28244;DHT22;15510;52.512;13.300;2024-01-27T00:25:21;6.90;99.90
28244;DHT22;15510;52.512;13.300;2024-01-27T00:27:50;6.80;99.90
28244;DHT22;15510;52.512;13.300;2024-01-27T00:30:15;6.80;99.90
28244;DHT22;15510;52.512;13.300;2024-01-27T00:32:41;6.70;99.90
28244;DHT22;15510;52.512;13.300;2024-01-27T00:35:07;6.60;99.90
28244;DHT22;15510;52.512;13.300;2024-01-27T00:37:35;6.60;99.90
28244;DHT22;15510;52.512;13.300;2024-01-27T00:40:01;6.70;99.90
28244;DHT22;15510;52.512;13.300;2024-01-27T00:42:27;6.70;99.90
28244;DHT22;15510;52.512;13.300;2024-01-27T00:44:58;6.70;99.90
28244;DHT22;15510;52.512;13.300;2024-01-27T00:47:26;6.70;99.90
28244;DHT22;15510;52.512;13.300;2024-01-27T00:49:52;6.80;99.90
28244;DHT22;15510;52.512;13.300;2024-01-27T00:52:20;6.70;99.90
28244;DHT22;15510;52.512;13.300;2024-01-27T00:54:45;6.70;99.90
28244;DHT22;15510;52.512;13.300;2024-01-27T00:57:11;6.70;99.90
28244;DHT22;15510;52.512;13.300;2024-01-27T00:59:37;6.70;99.90
28244;DHT22;15510;52.512;13.300;2024-01-27T01:02:04;6.70;99.90
28244;DHT22;15510;52.512;13.300;2024-01-27T01:04:33;6.70;99.90
28244;DHT22;15510;52.512;13.300;2024-01-27T01:06:59;6.70;99.90
28244;DHT22;15510;52.512;13.300;2024-01-27T01:09:34;6.70;99.90
28244;DHT22;15510;52.512;13.300;2024-01-27T01:11:59;6.60;99.90
28244;DHT22;15510;52.512;13.300;2024-01-27T01:14:25;6.60;99.90
28244;DHT22;15510;52.512;13.300;2024-01-27T01:16:51;6.60;99.90
28244;DHT22;15510;52.512;13.300;2024-01-27T01:19:17;6.60;99.90
28244;DHT22;15510;52.512;13.300;2024-01-27T01:21:43;6.60;99.90
28244;DHT22;15510;52.512;13.300;2024-01-27T01:24:09;6.50;99.90
28244;DHT22;15510;52.512;13.300;2024-01-27T01:26:35;6.60;99.90
28244;DHT22;15510;52.512;13.300;2024-01-27T01:29:03;6.60;99.90
28244;DHT22;15510;52.512;13.300;2024-01-27T01:31:32;6.60;99.90
28244;DHT22;15510;52.512;13.300;2024-01-27T01:33:58;6.60;99.90
28244;DHT22;15510;52.512;13.300;2024-01-27T01:36:34;6.60;99.90
28244;DHT22;15510;52.512;13.300;2024-01-27T01:39:00;6.60;99.90
28244;DHT22;15510;52.512;13.300;2024-01-27T01:41:26;6.60;99.90
28244;DHT22;15510;52.512;13.300;2024-01-27T01:43:52;6.60;99.90
28244;DHT22;15510;52.512;13.300;2024-01-27T01:46:18;6.60;99.90
28244;DHT22;15510;52.512;13.300;2024-01-27T01:48:44;6.50;99.90
28244;DHT22;15510;52.512;13.300;2024-01-27T01:51:11;6.60;99.90
28244;DHT22;15510;52.512;13.300;2024-01-27T01:53:37;6.50;99.90
28244;DHT22;15510;52.512;13.300;2024-01-27T01:56:04;6.50;99.90
28244;DHT22;15510;52.512;13.300;2024-01-27T01:58:30;6.50;99.90
28244;DHT22;15510;52.512;13.300;2024-01-27T02:01:02;6.60;99.90
28244;DHT22;15510;52.512;13.300;2024-01-27T02:03:28;6.50;99.90
28244;DHT22;15510;52.512;13.300;2024-01-27T02:05:55;6.40;99.90
28244;DHT22;15510;52.512;13.300;2024-01-27T02:08:23;6.50;99.90
28244;DHT22;15510;52.512;13.300;2024-01-27T02:10:50;6.50;99.90
28244;DHT22;15510;52.512;13.300;2024-01-27T02:13:19;6.50;99.90
28244;DHT22;15510;52.512;13.300;2024-01-27T02:15:47;6.50;99.90
28244;DHT22;15510;52.512;13.300;2024-01-27T02:18:13;6.60;99.90
28244;DHT22;15510;52.512;13.300;2024-01-27T02:20:40;6.60;99.90
28244;DHT22;15510;52.512;13.300;2024-01-27T02:23:06;6.50;99.90
28244;DHT22;15510;52.512;13.300;2024-01-27T02:25:32;6.50;99.90
28244;DHT22;15510;52.512;13.300;2024-01-27T02:27:59;6.40;99.90
28244;DHT22;15510;52.512;13.300;2024-01-27T02:30:25;6.40;99.90
28244;DHT22;15510;52.512;13.300;2024-01-27T02:32:51;6.50;99.90
28244;DHT22;15510;52.512;13.300;2024-01-27T02:35:17;6.50;99.90
28244;DHT22;15510;52.512;13.300;2024-01-27T02:37:43;6.60;99.90
28244;DHT22;15510;52.512;13.300;2024-01-27T02:40:09;6.60;99.90
28244;DHT22;15510;52.512;13.300;2024-01-27T02:42:36;6.50;99.90
28244;DHT22;15510;52.512;13.300;2024-01-27T02:45:03;6.60;99.90
28244;DHT22;15510;52.512;13.300;2024-01-27T02:47:29;6.60;99.90
28244;DHT22;15510;52.512;13.300;2024-01-27T02:49:55;6.60;99.90
28244;DHT22;15510;52.512;13.300;2024-01-27T02:52:21;6.70;99.90
28244;DHT22;15510;52.512;13.300;2024-01-27T02:54:47;6.70;99.90
28244;DHT22;15510;52.512;13.300;2024-01-27T02:57:13;6.60;99.90
28244;DHT22;15510;52.512;13.300;2024-01-27T02:59:45;6.60;99.90
28244;DHT22;15510;52.512;13.300;2024-01-27T03:02:11;6.50;99.90
28244;DHT22;15510;52.512;13.300;2024-01-27T03:04:36;6.50;99.90
28244;DHT22;15510;52.512;13.300;2024-01-27T03:07:02;6.40;99.90
28244;DHT22;15510;52.512;13.300;2024-01-27T03:09:28;6.50;99.90
28244;DHT22;15510;52.512;13.300;2024-01-27T03:11:54;6.50;99.90
28244;DHT22;15510;52.512;13.300;2024-01-27T03:14:20;6.50;99.90
28244;DHT22;15510;52.512;13.300;2024-01-27T03:16:45;6.40;99.90
28244;DHT22;15510;52.512;13.300;2024-01-27T03:19:11;6.40;99.90
28244;DHT22;15510;52.512;13.300;2024-01-27T03:21:37;6.30;99.90
28244;DHT22;15510;52.512;13.300;2024-01-27T03:24:03;6.30;99.90
28244;DHT22;15510;52.512;13.300;2024-01-27T03:26:28;6.30;99.90
28244;DHT22;15510;52.512;13.300;2024-01-27T03:28:54;6.30;99.90
28244;DHT22;15510;52.512;13.300;2024-01-27T03:31:20;6.20;99.90
28244;DHT22;15510;52.512;13.300;2024-01-27T03:33:46;6.10;99.90
28244;DHT22;15510;52.512;13.300;2024-01-27T03:36:13;6.00;99.90
28244;DHT22;15510;52.512;13.300;2024-01-27T03:38:42;5.90;99.90
28244;DHT22;15510;52.512;13.300;2024-01-27T03:41:07;5.90;99.90
28244;DHT22;15510;52.512;13.300;2024-01-27T03:43:33;5.80;99.90
28244;DHT22;15510;52.512;13.300;2024-01-27T03:45:59;5.90;99.90
28244;DHT22;15510;52.512;13.300;2024-01-27T03:48:25;5.90;99.90
28244;DHT22;15510;52.512;13.300;2024-01-27T03:50:51;6.00;99.90
28244;DHT22;15510;52.512;13.300;2024-01-27T03:53:17;5.90;99.90
28244;DHT22;15510;52.512;13.300;2024-01-27T03:55:42;5.90;99.90
28244;DHT22;15510;52.512;13.300;2024-01-27T03:58:08;5.80;99.90
28244;DHT22;15510;52.512;13.300;2024-01-27T04:00:34;5.80;99.90
28244;DHT22;15510;52.512;13.300;2024-01-27T04:03:00;5.80;99.90
28244;DHT22;15510;52.512;13.300;2024-01-27T04:05:28;5.90;99.90
28244;DHT22;15510;52.512;13.300;2024-01-27T04:07:54;5.80;99.90
28244;DHT22;15510;52.512;13.300;2024-01-27T04:10:20;5.80;99.90
28244;DHT22;15510;52.512;13.300;2024-01-27T04:12:46;5.80;99.90
28244;DHT22;15510;52.512;13.300;2024-01-27T04:15:12;5.80;99.90
28244;DHT22;15510;52.512;13.300;2024-01-27T04:17:40;5.90;99.90
28244;DHT22;15510;52.512;13.300;2024-01-27T04:20:07;5.80;99.90
28244;DHT22;15510;52.512;13.300;2024-01-27T04:22:34;5.80;99.90
28244;DHT22;15510;52.512;13.300;2024-01-27T04:25:00;5.80;99.90
28244;DHT22;15510;52.512;13.300;2024-01-27T04:27:27;5.80;99.90
28244;DHT22;15510;52.512;13.300;2024-01-27T04:29:54;5.80;99.90
28244;DHT22;15510;52.512;13.300;2024-01-27T04:32:20;5.80;99.90
28244;DHT22;15510;52.512;13.300;2024-01-27T04:34:47;5.70;99.90
28244;DHT22;15510;52.512;13.300;2024-01-27T04:37:13;5.80;99.90
28244;DHT22;15510;52.512;13.300;2024-01-27T04:39:39;5.80;99.90
28244;DHT22;15510;52.512;13.300;2024-01-27T04:42:08;5.80;99.90
28244;DHT22;15510;52.512;13.300;2024-01-27T04:44:34;5.80;99.90
28244;DHT22;15510;52.512;13.300;2024-01-27T04:47:00;5.70;99.90
28244;DHT22;15510;52.512;13.300;2024-01-27T04:49:26;5.80;99.90
28244;DHT22;15510;52.512;13.300;2024-01-27T04:51:52;5.80;99.90
28244;DHT22;15510;52.512;13.300;2024-01-27T04:54:18;5.80;99.90
28244;DHT22;15510;52.512;13.300;2024-01-27T04:56:43;5.80;99.90
28244;DHT22;15510;52.512;13.300;2024-01-27T04:59:09;5.90;99.90
28244;DHT22;15510;52.512;13.300;2024-01-27T05:01:35;5.90;99.90
28244;DHT22;15510;52.512;13.300;2024-01-27T05:04:01;5.90;99.90
28244;DHT22;15510;52.512;13.300;2024-01-27T05:06:27;5.90;99.90
28244;DHT22;15510;52.512;13.300;2024-01-27T05:08:55;6.00;99.90
28244;DHT22;15510;52.512;13.300;2024-01-27T05:11:31;6.00;99.90
28244;DHT22;15510;52.512;13.300;2024-01-27T05:13:58;5.90;99.90
28244;DHT22;15510;52.512;13.300;2024-01-27T05:16:24;6.00;99.90
28244;DHT22;15510;52.512;13.300;2024-01-27T05:18:50;5.90;99.90
28244;DHT22;15510;52.512;13.300;2024-01-27T05:21:16;5.90;99.90
28244;DHT22;15510;52.512;13.300;2024-01-27T05:23:42;5.80;99.90
28244;DHT22;15510;52.512;13.300;2024-01-27T05:26:07;5.90;99.90
28244;DHT22;15510;52.512;13.300;2024-01-27T05:28:34;6.00;99.90
28244;DHT22;15510;52.512;13.300;2024-01-27T05:31:00;6.00;99.90
28244;DHT22;15510;52.512;13.300;2024-01-27T05:33:25;6.00;99.90
28244;DHT22;15510;52.512;13.300;2024-01-27T05:35:51;6.00;99.90
28244;DHT22;15510;52.512;13.300;2024-01-27T05:38:17;6.10;99.90
28244;DHT22;15510;52.512;13.300;2024-01-27T05:40:43;6.10;99.90
28244;DHT22;15510;52.512;13.300;2024-01-27T05:43:10;6.00;99.90
28244;DHT22;15510;52.512;13.300;2024-01-27T05:45:39;6.20;99.90
28244;DHT22;15510;52.512;13.300;2024-01-27T05:48:05;6.20;99.90
28244;DHT22;15510;52.512;13.300;2024-01-27T05:50:31;6.20;99.90
28244;DHT22;15510;52.512;13.300;2024-01-27T05:53:00;6.20;99.90
28244;DHT22;15510;52.512;13.300;2024-01-27T05:55:26;6.30;99.90
28244;DHT22;15510;52.512;13.300;2024-01-27T05:57:52;6.30;99.90
28244;DHT22;15510;52.512;13.300;2024-01-27T06:00:17;6.30;99.90
28244;DHT22;15510;52.512;13.300;2024-01-27T06:02:43;6.30;99.90
28244;DHT22;15510;52.512;13.300;2024-01-27T06:05:09;6.30;99.90
28244;DHT22;15510;52.512;13.300;2024-01-27T06:07:37;6.20;99.90
28244;DHT22;15510;52.512;13.300;2024-01-27T06:10:07;6.20;99.90
28244;DHT22;15510;52.512;13.300;2024-01-27T06:12:33;6.20;99.90
28244;DHT22;15510;52.512;13.300;2024-01-27T06:14:59;6.30;99.90
28244;DHT22;15510;52.512;13.300;2024-01-27T06:17:25;6.30;99.90
28244;DHT22;15510;52.512;13.300;2024-01-27T06:19:54;6.30;99.90
28244;DHT22;15510;52.512;13.300;2024-01-27T06:22:20;6.30;99.90
28244;DHT22;15510;52.512;13.300;2024-01-27T06:24:48;6.30;99.90
28244;DHT22;15510;52.512;13.300;2024-01-27T06:27:17;6.40;99.90
28244;DHT22;15510;52.512;13.300;2024-01-27T06:29:45;6.40;99.90
28244;DHT22;15510;52.512;13.300;2024-01-27T06:32:11;6.40;99.90
28244;DHT22;15510;52.512;13.300;2024-01-27T06:34:37;6.40;99.90
28244;DHT22;15510;52.512;13.300;2024-01-27T06:37:05;6.40;99.90
28244;DHT22;15510;52.512;13.300;2024-01-27T06:39:31;6.30;99.90
28244;DHT22;15510;52.512;13.300;2024-01-27T06:41:59;6.30;99.90
28244;DHT22;15510;52.512;13.300;2024-01-27T06:44:25;6.30;99.90
28244;DHT22;15510;52.512;13.300;2024-01-27T06:46:51;6.30;99.90
28244;DHT22;15510;52.512;13.300;2024-01-27T06:49:17;6.30;99.90
28244;DHT22;15510;52.512;13.300;2024-01-27T06:51:43;6.40;99.90
28244;DHT22;15510;52.512;13.300;2024-01-27T06:54:09;6.40;99.90
28244;DHT22;15510;52.512;13.300;2024-01-27T06:56:35;6.40;99.90
28244;DHT22;15510;52.512;13.300;2024-01-27T06:59:03;6.30;99.90
28244;DHT22;15510;52.512;13.300;2024-01-27T07:01:29;6.40;99.90
28244;DHT22;15510;52.512;13.300;2024-01-27T07:03:54;6.40;99.90
28244;DHT22;15510;52.512;13.300;2024-01-27T07:06:20;6.40;99.90
28244;DHT22;15510;52.512;13.300;2024-01-27T07:08:46;6.30;99.90
28244;DHT22;15510;52.512;13.300;2024-01-27T07:11:12;6.40;99.90
28244;DHT22;15510;52.512;13.300;2024-01-27T07:13:41;6.40;99.90
28244;DHT22;15510;52.512;13.300;2024-01-27T07:16:07;6.40;99.90
28244;DHT22;15510;52.512;13.300;2024-01-27T07:18:33;6.40;99.90
28244;DHT22;15510;52.512;13.300;2024-01-27T07:21:01;6.40;99.90
28244;DHT22;15510;52.512;13.300;2024-01-27T07:23:28;6.50;99.90
28244;DHT22;15510;52.512;13.300;2024-01-27T07:25:54;6.50;99.90
28244;DHT22;15510;52.512;13.300;2024-01-27T07:28:19;6.40;99.90
28244;DHT22;15510;52.512;13.300;2024-01-27T07:30:45;6.50;99.90
28244;DHT22;15510;52.512;13.300;2024-01-27T07:33:11;6.50;99.90
28244;DHT22;15510;52.512;13.300;2024-01-27T07:35:37;6.60;99.90
28244;DHT22;15510;52.512;13.300;2024-01-27T07:38:02;6.60;99.90
28244;DHT22;15510;52.512;13.300;2024-01-27T07:40:28;6.60;99.90
28244;DHT22;15510;52.512;13.300;2024-01-27T07:42:54;6.70;99.90
28244;DHT22;15510;52.512;13.300;2024-01-27T07:45:20;6.60;99.90
28244;DHT22;15510;52.512;13.300;2024-01-27T07:47:49;6.60;99.90
28244;DHT22;15510;52.512;13.300;2024-01-27T07:50:14;6.70;99.90
28244;DHT22;15510;52.512;13.300;2024-01-27T07:52:40;6.70;99.90
28244;DHT22;15510;52.512;13.300;2024-01-27T07:55:11;6.70;99.90
28244;DHT22;15510;52.512;13.300;2024-01-27T07:57:40;6.80;99.90
28244;DHT22;15510;52.512;13.300;2024-01-27T08:00:13;6.70;99.90
28244;DHT22;15510;52.512;13.300;2024-01-27T08:02:38;6.70;99.90
28244;DHT22;15510;52.512;13.300;2024-01-27T08:05:07;6.80;99.90
28244;DHT22;15510;52.512;13.300;2024-01-27T08:07:43;6.80;99.90
28244;DHT22;15510;52.512;13.300;2024-01-27T08:10:09;6.80;99.90
28244;DHT22;15510;52.512;13.300;2024-01-27T08:12:39;6.90;99.90
28244;DHT22;15510;52.512;13.300;2024-01-27T08:15:11;6.90;99.90
28244;DHT22;15510;52.512;13.300;2024-01-27T08:17:39;6.90;99.90
28244;DHT22;15510;52.512;13.300;2024-01-27T08:20:06;6.90;99.90
28244;DHT22;15510;52.512;13.300;2024-01-27T08:22:32;6.90;99.90
28244;DHT22;15510;52.512;13.300;2024-01-27T08:25:00;6.90;99.90
28244;DHT22;15510;52.512;13.300;2024-01-27T08:27:26;6.90;99.90
28244;DHT22;15510;52.512;13.300;2024-01-27T08:29:51;6.90;99.90
28244;DHT22;15510;52.512;13.300;2024-01-27T08:32:19;6.90;99.90
28244;DHT22;15510;52.512;13.300;2024-01-27T08:34:45;7.00;99.90
28244;DHT22;15510;52.512;13.300;2024-01-27T08:37:18;7.00;99.90
28244;DHT22;15510;52.512;13.300;2024-01-27T08:39:47;7.00;99.90
28244;DHT22;15510;52.512;13.300;2024-01-27T08:42:13;7.00;99.90
28244;DHT22;15510;52.512;13.300;2024-01-27T08:44:42;7.00;99.90
28244;DHT22;15510;52.512;13.300;2024-01-27T08:47:08;7.00;99.90
28244;DHT22;15510;52.512;13.300;2024-01-27T08:49:34;7.00;99.90
28244;DHT22;15510;52.512;13.300;2024-01-27T08:52:02;7.00;99.90
28244;DHT22;15510;52.512;13.300;2024-01-27T08:54:28;7.10;99.90
28244;DHT22;15510;52.512;13.300;2024-01-27T08:56:53;7.10;99.90
28244;DHT22;15510;52.512;13.300;2024-01-27T08:59:22;7.20;99.90
28244;DHT22;15510;52.512;13.300;2024-01-27T09:01:48;7.30;99.90
28244;DHT22;15510;52.512;13.300;2024-01-27T09:04:14;7.20;99.90
28244;DHT22;15510;52.512;13.300;2024-01-27T09:06:39;7.20;99.90
28244;DHT22;15510;52.512;13.300;2024-01-27T09:09:05;7.30;99.90
28244;DHT22;15510;52.512;13.300;2024-01-27T09:11:31;7.30;99.90
28244;DHT22;15510;52.512;13.300;2024-01-27T09:13:57;7.30;99.90
28244;DHT22;15510;52.512;13.300;2024-01-27T09:16:26;7.40;99.90
28244;DHT22;15510;52.512;13.300;2024-01-27T09:18:51;7.40;99.90
28244;DHT22;15510;52.512;13.300;2024-01-27T09:21:19;7.30;99.90
28244;DHT22;15510;52.512;13.300;2024-01-27T09:23:49;7.30;99.90
28244;DHT22;15510;52.512;13.300;2024-01-27T09:26:15;7.30;99.90
28244;DHT22;15510;52.512;13.300;2024-01-27T09:28:44;7.40;99.90
28244;DHT22;15510;52.512;13.300;2024-01-27T09:31:12;7.30;99.90
28244;DHT22;15510;52.512;13.300;2024-01-27T09:33:38;7.40;99.90
28244;DHT22;15510;52.512;13.300;2024-01-27T09:36:04;7.40;99.90
28244;DHT22;15510;52.512;13.300;2024-01-27T09:38:30;7.40;99.90
28244;DHT22;15510;52.512;13.300;2024-01-27T09:40:56;7.40;99.90
28244;DHT22;15510;52.512;13.300;2024-01-27T09:43:24;7.40;99.90
28244;DHT22;15510;52.512;13.300;2024-01-27T09:45:50;7.50;99.90
28244;DHT22;15510;52.512;13.300;2024-01-27T09:48:16;7.60;99.90
28244;DHT22;15510;52.512;13.300;2024-01-27T09:50:44;7.50;99.90
28244;DHT22;15510;52.512;13.300;2024-01-27T09:53:13;7.50;99.90
28244;DHT22;15510;52.512;13.300;2024-01-27T09:55:39;7.60;99.90
28244;DHT22;15510;52.512;13.300;2024-01-27T09:58:05;7.60;99.90
28244;DHT22;15510;52.512;13.300;2024-01-27T10:00:31;7.60;99.90
28244;DHT22;15510;52.512;13.300;2024-01-27T10:02:58;7.70;99.90
28244;DHT22;15510;52.512;13.300;2024-01-27T10:05:24;7.70;99.90
28244;DHT22;15510;52.512;13.300;2024-01-27T10:07:50;7.70;99.90
28244;DHT22;15510;52.512;13.300;2024-01-27T10:10:18;7.70;99.90
28244;DHT22;15510;52.512;13.300;2024-01-27T10:12:45;7.80;99.90
28244;DHT22;15510;52.512;13.300;2024-01-27T10:15:21;7.90;99.90
28244;DHT22;15510;52.512;13.300;2024-01-27T10:17:48;7.90;99.90
28244;DHT22;15510;52.512;13.300;2024-01-27T10:20:14;7.90;99.90
28244;DHT22;15510;52.512;13.300;2024-01-27T10:22:42;8.00;99.90
28244;DHT22;15510;52.512;13.300;2024-01-27T10:25:09;7.90;99.90
28244;DHT22;15510;52.512;13.300;2024-01-27T10:27:35;7.90;99.90
28244;DHT22;15510;52.512;13.300;2024-01-27T10:30:01;8.00;99.90
28244;DHT22;15510;52.512;13.300;2024-01-27T10:32:28;8.10;99.90
28244;DHT22;15510;52.512;13.300;2024-01-27T10:35:07;8.10;99.90
28244;DHT22;15510;52.512;13.300;2024-01-27T10:37:43;8.20;99.90
28244;DHT22;15510;52.512;13.300;2024-01-27T10:40:09;8.20;99.90
28244;DHT22;15510;52.512;13.300;2024-01-27T10:42:36;8.20;99.90
28244;DHT22;15510;52.512;13.300;2024-01-27T10:45:06;8.20;99.90
28244;DHT22;15510;52.512;13.300;2024-01-27T10:47:34;8.10;99.90
28244;DHT22;15510;52.512;13.300;2024-01-27T10:50:01;8.10;99.90
28244;DHT22;15510;52.512;13.300;2024-01-27T10:52:37;8.10;99.90
28244;DHT22;15510;52.512;13.300;2024-01-27T10:55:04;8.10;99.90
28244;DHT22;15510;52.512;13.300;2024-01-27T10:57:36;8.00;99.90
28244;DHT22;15510;52.512;13.300;2024-01-27T11:00:04;8.10;99.90
28244;DHT22;15510;52.512;13.300;2024-01-27T11:02:35;8.10;99.90
28244;DHT22;15510;52.512;13.300;2024-01-27T11:05:05;8.10;99.90
28244;DHT22;15510;52.512;13.300;2024-01-27T11:07:34;8.10;99.90
28244;DHT22;15510;52.512;13.300;2024-01-27T11:10:00;8.10;99.90
28244;DHT22;15510;52.512;13.300;2024-01-27T11:12:26;8.10;99.90
28244;DHT22;15510;52.512;13.300;2024-01-27T11:14:53;8.20;99.90
28244;DHT22;15510;52.512;13.300;2024-01-27T11:17:19;8.30;99.90
28244;DHT22;15510;52.512;13.300;2024-01-27T11:19:45;8.30;99.90
28244;DHT22;15510;52.512;13.300;2024-01-27T11:22:32;8.40;99.90
28244;DHT22;15510;52.512;13.300;2024-01-27T11:25:17;8.40;99.90
28244;DHT22;15510;52.512;13.300;2024-01-27T11:27:45;8.40;99.90
28244;DHT22;15510;52.512;13.300;2024-01-27T11:30:28;8.30;99.90
28244;DHT22;15510;52.512;13.300;2024-01-27T11:33:00;8.30;99.90
28244;DHT22;15510;52.512;13.300;2024-01-27T11:35:33;8.30;99.90
28244;DHT22;15510;52.512;13.300;2024-01-27T11:37:58;8.30;99.90
28244;DHT22;15510;52.512;13.300;2024-01-27T11:40:24;8.30;99.90
28244;DHT22;15510;52.512;13.300;2024-01-27T11:42:56;8.30;99.90
28244;DHT22;15510;52.512;13.300;2024-01-27T11:45:22;8.20;99.90
28244;DHT22;15510;52.512;13.300;2024-01-27T11:47:49;8.20;99.90
28244;DHT22;15510;52.512;13.300;2024-01-27T11:50:21;8.20;99.90
28244;DHT22;15510;52.512;13.300;2024-01-27T11:52:47;8.10;99.90
28244;DHT22;15510;52.512;13.300;2024-01-27T11:55:15;8.00;99.90
28244;DHT22;15510;52.512;13.300;2024-01-27T11:57:43;8.00;99.90
28244;DHT22;15510;52.512;13.300;2024-01-27T12:00:09;8.10;99.90
28244;DHT22;15510;52.512;13.300;2024-01-27T12:02:38;8.10;99.90
28244;DHT22;15510;52.512;13.300;2024-01-27T12:05:09;8.20;99.90
28244;DHT22;15510;52.512;13.300;2024-01-27T12:07:36;8.20;99.90
28244;DHT22;15510;52.512;13.300;2024-01-27T12:10:02;8.10;99.90
28244;DHT22;15510;52.512;13.300;2024-01-27T12:12:32;8.20;99.90
28244;DHT22;15510;52.512;13.300;2024-01-27T12:14:59;8.20;99.90
28244;DHT22;15510;52.512;13.300;2024-01-27T12:17:33;8.20;99.90
28244;DHT22;15510;52.512;13.300;2024-01-27T12:20:03;8.20;99.90
28244;DHT22;15510;52.512;13.300;2024-01-27T12:22:39;8.30;99.90
28244;DHT22;15510;52.512;13.300;2024-01-27T12:25:10;8.20;99.90
28244;DHT22;15510;52.512;13.300;2024-01-27T12:27:36;8.20;99.90
28244;DHT22;15510;52.512;13.300;2024-01-27T12:30:03;8.20;99.90
28244;DHT22;15510;52.512;13.300;2024-01-27T12:32:33;8.20;99.90
28244;DHT22;15510;52.512;13.300;2024-01-27T12:35:04;8.20;99.90
28244;DHT22;15510;52.512;13.300;2024-01-27T12:37:30;8.30;99.90
28244;DHT22;15510;52.512;13.300;2024-01-27T12:39:59;8.30;99.90
28244;DHT22;15510;52.512;13.300;2024-01-27T12:42:25;8.20;99.90
28244;DHT22;15510;52.512;13.300;2024-01-27T12:44:51;8.20;99.90
28244;DHT22;15510;52.512;13.300;2024-01-27T12:47:17;8.20;99.90
28244;DHT22;15510;52.512;13.300;2024-01-27T12:49:45;8.10;99.90
28244;DHT22;15510;52.512;13.300;2024-01-27T12:52:11;8.10;99.90
28244;DHT22;15510;52.512;13.300;2024-01-27T12:54:37;8.30;99.90
28244;DHT22;15510;52.512;13.300;2024-01-27T12:57:04;8.20;99.90
28244;DHT22;15510;52.512;13.300;2024-01-27T12:59:31;8.10;99.90
28244;DHT22;15510;52.512;13.300;2024-01-27T13:01:57;8.00;99.90
28244;DHT22;15510;52.512;13.300;2024-01-27T13:04:27;7.90;99.90
28244;DHT22;15510;52.512;13.300;2024-01-27T13:06:55;8.00;99.90
28244;DHT22;15510;52.512;13.300;2024-01-27T13:09:21;8.10;99.90
28244;DHT22;15510;52.512;13.300;2024-01-27T13:11:47;8.20;99.90
28244;DHT22;15510;52.512;13.300;2024-01-27T13:14:14;8.20;99.90
28244;DHT22;15510;52.512;13.300;2024-01-27T13:16:41;8.30;99.90
28244;DHT22;15510;52.512;13.300;2024-01-27T13:19:07;8.30;99.90
28244;DHT22;15510;52.512;13.300;2024-01-27T13:21:36;8.40;99.90
28244;DHT22;15510;52.512;13.300;2024-01-27T13:24:02;8.40;99.90
28244;DHT22;15510;52.512;13.300;2024-01-27T13:26:28;8.40;99.90
28244;DHT22;15510;52.512;13.300;2024-01-27T13:28:56;8.30;99.90
28244;DHT22;15510;52.512;13.300;2024-01-27T13:31:25;8.20;99.90
28244;DHT22;15510;52.512;13.300;2024-01-27T13:33:51;8.20;99.90
28244;DHT22;15510;52.512;13.300;2024-01-27T13:36:17;8.10;99.90
28244;DHT22;15510;52.512;13.300;2024-01-27T13:38:43;8.20;99.90
28244;DHT22;15510;52.512;13.300;2024-01-27T13:41:09;8.20;99.90
28244;DHT22;15510;52.512;13.300;2024-01-27T13:43:35;8.20;99.90
28244;DHT22;15510;52.512;13.300;2024-01-27T13:46:01;8.20;99.90
28244;DHT22;15510;52.512;13.300;2024-01-27T13:48:26;8.20;99.90
28244;DHT22;15510;52.512;13.300;2024-01-27T13:50:52;8.20;99.90
28244;DHT22;15510;52.512;13.300;2024-01-27T13:53:18;8.10;99.90
28244;DHT22;15510;52.512;13.300;2024-01-27T13:55:44;8.20;99.90
28244;DHT22;15510;52.512;13.300;2024-01-27T13:58:10;8.20;99.90
28244;DHT22;15510;52.512;13.300;2024-01-27T14:00:36;8.20;99.90
28244;DHT22;15510;52.512;13.300;2024-01-27T14:03:02;8.20;99.90
28244;DHT22;15510;52.512;13.300;2024-01-27T14:05:28;8.10;99.90
28244;DHT22;15510;52.512;13.300;2024-01-27T14:07:55;8.10;99.90
28244;DHT22;15510;52.512;13.300;2024-01-27T14:10:21;8.10;99.90
28244;DHT22;15510;52.512;13.300;2024-01-27T14:12:47;8.10;99.90
28244;DHT22;15510;52.512;13.300;2024-01-27T14:15:13;8.30;99.90
28244;DHT22;15510;52.512;13.300;2024-01-27T14:17:40;8.30;99.90
28244;DHT22;15510;52.512;13.300;2024-01-27T14:20:06;8.20;99.90
28244;DHT22;15510;52.512;13.300;2024-01-27T14:22:34;8.30;99.90
28244;DHT22;15510;52.512;13.300;2024-01-27T14:25:00;8.30;99.90
28244;DHT22;15510;52.512;13.300;2024-01-27T14:27:30;8.20;99.90
28244;DHT22;15510;52.512;13.300;2024-01-27T14:29:56;8.20;99.90
28244;DHT22;15510;52.512;13.300;2024-01-27T14:32:22;8.20;99.90
28244;DHT22;15510;52.512;13.300;2024-01-27T14:34:48;8.30;99.90
28244;DHT22;15510;52.512;13.300;2024-01-27T14:37:15;8.30;99.90
28244;DHT22;15510;52.512;13.300;2024-01-27T14:39:47;8.30;99.90
28244;DHT22;15510;52.512;13.300;2024-01-27T14:42:14;8.40;99.90
28244;DHT22;15510;52.512;13.300;2024-01-27T14:44:40;8.30;99.90
28244;DHT22;15510;52.512;13.300;2024-01-27T14:47:08;8.30;99.90
28244;DHT22;15510;52.512;13.300;2024-01-27T14:49:54;8.30;99.90
28244;DHT22;15510;52.512;13.300;2024-01-27T14:52:20;8.30;99.90
28244;DHT22;15510;52.512;13.300;2024-01-27T14:54:50;8.20;99.90
28244;DHT22;15510;52.512;13.300;2024-01-27T14:57:19;8.20;99.90
28244;DHT22;15510;52.512;13.300;2024-01-27T14:59:47;8.20;99.90
28244;DHT22;15510;52.512;13.300;2024-01-27T15:02:13;8.30;99.90
28244;DHT22;15510;52.512;13.300;2024-01-27T15:04:39;8.30;99.90
28244;DHT22;15510;52.512;13.300;2024-01-27T15:07:05;8.10;99.90
28244;DHT22;15510;52.512;13.300;2024-01-27T15:09:34;8.10;99.90
28244;DHT22;15510;52.512;13.300;2024-01-27T15:12:00;8.00;99.90
28244;DHT22;15510;52.512;13.300;2024-01-27T15:14:33;8.00;99.90
28244;DHT22;15510;52.512;13.300;2024-01-27T15:16:58;8.00;99.90
28244;DHT22;15510;52.512;13.300;2024-01-27T15:19:24;8.10;99.90
28244;DHT22;15510;52.512;13.300;2024-01-27T15:21:50;8.00;99.90
28244;DHT22;15510;52.512;13.300;2024-01-27T15:24:16;7.90;99.90
28244;DHT22;15510;52.512;13.300;2024-01-27T15:26:42;7.90;99.90
28244;DHT22;15510;52.512;13.300;2024-01-27T15:29:08;7.90;99.90